Latest Weather Observations for Bendigo

IDV60801

Issued at 7:35 pm EDT Thursday 18 December 2014 (issued every 30 minutes, with the page automatically refreshed every 10 minutes)

About weather observations | Map of weather stations | Latest weather observations for VIC | Other Formats
Station Details ID: 081123 Name: BENDIGO AIRPORT Lat: -36.74 Lon: 144.33 Height: 208.0 m
Data from the previous 72 hours. | See also: Recent months at Bendigo
Date/Time
EDT
Temp
°C
App
Temp
°C
Dew
Point
Rel
Hum
%
Delta-T
°C
Wind Press
QNH
hPa
Press
MSL
hPa
Rain
since 9 am
mm
Dir
 
Spd
km/h
Gust
km/h
Spd
kts
Gust
kts
18/07:30pm 17.0 13.2 9.7 62 3.9 SW 20 32 11 17 1010.6 1010.0 0.4
18/07:00pm 17.6 14.2 9.2 58 4.4 SW 17 28 9 15 1010.0 1009.4 0.4
18/06:30pm 16.0 12.3 10.3 69 3.0 SW 20 32 11 17 1009.6 1009.0 0.4
18/06:10pm 15.0 9.4 10.0 72 2.6 SW 30 48 16 26 1009.9 1009.3 0.2
18/06:00pm 16.6 10.8 9.3 62 3.8 SSW 30 43 16 23 1009.5 1008.9 0.2
18/05:30pm 17.2 14.2 12.7 75 2.5 SW 20 35 11 19 1009.0 1008.4 0.2
18/05:00pm 17.0 12.5 11.3 69 3.1 WSW 26 39 14 21 1009.1 1008.5 0.0
18/04:30pm 18.0 13.2 11.8 67 3.4 WSW 28 48 15 26 1008.8 1008.2 0.0
18/04:28pm 18.0 13.1 12.5 70 3.1 WSW 30 48 16 26 1008.8 1008.2 0.0
18/04:22pm 17.7 11.8 11.3 66 3.5 WSW 33 48 18 26 1008.7 1008.1 0.0
18/04:00pm 22.7 16.4 5.6 33 8.7 W 28 50 15 27 1007.1 1006.4 0.0
18/03:33pm 23.8 17.1 3.7 27 10.0 W 28 46 15 25 1006.8 1006.1 0.0
18/03:30pm 23.6 16.3 4.5 29 9.6 W 32 44 17 24 1006.8 1006.1 0.0
18/03:08pm 24.5 17.5 5.8 30 9.7 W 32 50 17 27 1006.9 1006.2 0.0
18/03:00pm 24.5 17.2 5.3 29 9.8 W 33 52 18 28 1006.9 1006.2 0.0
18/02:30pm 24.0 16.7 4.4 28 9.8 WNW 32 50 17 27 1006.6 1006.0 0.0
18/02:00pm 23.5 17.0 4.5 29 9.5 WNW 28 46 15 25 1006.8 1006.1 0.0
18/01:55pm 23.5 16.9 4.0 28 9.7 WNW 28 46 15 25 1006.8 1006.1 0.0
18/01:30pm 23.1 16.0 3.6 28 9.6 WNW 30 44 16 24 1006.9 1006.2 0.0
18/01:19pm 23.0 16.4 4.0 29 9.4 W 28 52 15 28 1006.8 1006.1 0.0
18/01:00pm 22.3 16.0 3.9 30 9.0 WNW 26 48 14 26 1007.2 1006.5 0.0
18/12:33pm 20.9 14.4 4.5 34 8.1 WNW 28 46 15 25 1007.2 1006.5 0.0
18/12:30pm 21.1 13.7 4.2 33 8.3 WNW 32 46 17 25 1007.2 1006.5 0.0
18/12:01pm 21.8 14.9 4.4 32 8.6 WNW 30 48 16 26 1007.0 1006.3 0.0
18/12:00pm 21.8 14.5 4.4 32 8.6 WNW 32 48 17 26 1006.9 1006.2 0.0
18/11:30am 22.9 15.0 4.4 30 9.2 NW 35 46 19 25 1006.9 1006.2 0.0
18/11:00am 22.5 16.0 4.5 31 9.0 NW 28 48 15 26 1007.1 1006.4 0.0
18/10:30am 22.1 16.7 4.6 32 8.7 NW 22 37 12 20 1007.2 1006.5 0.0
18/10:00am 21.0 16.1 5.0 35 8.0 WNW 20 30 11 16 1007.4 1006.7 0.0
18/09:30am 20.1 15.8 5.4 38 7.3 WNW 17 26 9 14 1007.5 1006.8 0.0
18/09:00am 18.4 14.5 5.3 42 6.4 W 15 22 8 12 1007.6 1006.9 0.0
18/08:30am 16.9 14.8 6.7 51 5.1 N 7 15 4 8 1007.3 1006.6 0.0
18/08:00am 15.3 13.4 6.8 57 4.2 NNW 6 11 3 6 1007.3 1006.6 0.0
18/07:30am 14.4 13.6 6.7 60 3.8 CALM 0 0 0 0 1006.9 1006.2 0.0
18/07:00am 12.0 11.1 6.1 67 2.8 CALM 0 0 0 0 1006.9 1006.2 0.0
18/06:30am 9.1 8.1 5.7 79 1.6 CALM 0 0 0 0 1006.4 1005.8 0.0
18/06:00am 9.2 8.2 5.8 79 1.6 CALM 0 0 0 0 1006.2 1005.6 0.0
18/05:30am 8.8 7.8 5.4 79 1.6 CALM 0 9 0 5 1006.0 1005.4 0.0
18/05:00am 8.2 7.0 4.4 77 1.7 CALM 0 0 0 0 1005.7 1005.1 0.0
18/04:30am 9.2 8.0 4.8 74 2.0 CALM 0 0 0 0 1005.5 1004.9 0.0
18/04:00am 8.8 7.6 4.6 75 1.9 CALM 0 0 0 0 1005.4 1004.8 0.0
18/03:30am 9.2 8.0 4.8 74 2.0 CALM 0 0 0 0 1005.4 1004.8 0.0
18/03:00am 10.0 8.9 5.2 72 2.2 CALM 0 0 0 0 1005.6 1005.0 0.0
18/02:30am 11.6 10.5 5.3 65 2.9 CALM 0 0 0 0 1005.8 1005.2 0.0
18/02:00am 12.7 11.4 5.8 63 3.3 SSE 2 7 1 4 1005.9 1005.3 0.0
18/01:30am 12.8 10.5 5.7 62 3.4 SSE 7 11 4 6 1006.1 1005.5 0.0
18/01:00am 13.2 10.5 5.6 60 3.6 SSE 9 13 5 7 1006.2 1005.6 0.0
18/12:30am 14.3 10.9 5.7 56 4.1 SSE 13 17 7 9 1006.2 1005.6 0.0
18/12:00am 15.4 11.0 5.0 50 5.0 SSE 17 24 9 13 1006.3 1005.7 0.0
 
Date/Time
EDT
Temp
°C
App
Temp
°C
Dew
Point
Rel
Hum
%
Delta-T
°C
Wind Press
QNH
hPa
Press
MSL
hPa
Rain
since 9 am
mm
Dir
 
Spd
km/h
Gust
km/h
Spd
kts
Gust
kts
17/11:30pm 15.8 11.8 4.8 48 5.2 SSE 15 20 8 11 1006.8 1006.1 0.0
17/11:00pm 16.4 12.6 4.1 44 5.8 SSE 13 17 7 9 1007.0 1006.3 0.0
17/10:30pm 17.8 14.9 2.5 36 7.1 S 7 15 4 8 1007.0 1006.3 0.0
17/10:00pm 14.9 13.0 0.4 37 6.3 CALM 0 0 0 0 1006.9 1006.2 0.0
17/09:30pm 16.3 14.3 -0.4 32 7.2 CALM 0 0 0 0 1006.5 1005.9 0.0
17/09:00pm 19.2 17.0 -1.3 25 8.9 CALM 0 0 0 0 1006.3 1005.7 0.0
17/08:30pm 21.7 18.1 -2.2 20 10.4 NW 7 11 4 6 1006.2 1005.6 0.0
17/08:00pm 23.2 19.2 -2.4 18 11.2 NW 9 15 5 8 1006.2 1005.6 0.0
17/07:30pm 23.6 19.6 -2.1 18 11.4 W 9 17 5 9 1006.0 1005.4 0.0
17/07:00pm 24.0 20.1 -1.8 18 11.5 W 9 15 5 8 1005.8 1005.2 0.0
17/06:30pm 24.2 20.6 -2.4 17 11.7 NW 7 15 4 8 1005.6 1005.0 0.0
17/06:00pm 23.8 19.5 -1.9 18 11.5 WNW 11 24 6 13 1005.6 1005.0 0.0
17/05:30pm 24.3 19.6 -1.5 18 11.6 WNW 13 20 7 11 1005.8 1005.2 0.0
17/05:00pm 23.5 18.9 -0.7 20 11.0 W 13 28 7 15 1006.0 1005.4 0.0
17/04:30pm 23.5 18.9 -0.7 20 11.0 N 13 24 7 13 1006.1 1005.5 0.0
17/04:00pm 24.0 18.6 -1.0 19 11.4 WNW 17 33 9 18 1006.5 1005.9 0.0
17/03:30pm 23.8 18.8 -1.2 19 11.3 WNW 15 26 8 14 1007.0 1006.3 0.0
17/03:00pm 22.5 18.8 -0.3 22 10.4 W 9 20 5 11 1007.2 1006.5 0.0
17/02:30pm 22.5 19.4 1.5 25 9.9 SSW 7 15 4 8 1007.5 1006.8 0.0
17/02:00pm 21.6 18.1 1.3 26 9.4 W 9 19 5 10 1007.9 1007.2 0.0
17/01:30pm 20.4 15.6 0.3 26 9.1 WSW 15 22 8 12 1008.4 1007.8 0.0
17/01:00pm 19.8 16.0 1.7 30 8.4 W 11 19 6 10 1008.8 1008.2 0.0
17/12:30pm 19.2 15.3 1.2 30 8.2 NNW 11 26 6 14 1009.0 1008.4 0.0
17/12:00pm 18.9 14.8 2.3 33 7.7 SW 13 24 7 13 1009.3 1008.7 0.0
17/11:30am 17.4 13.2 1.8 35 7.1 SW 13 26 7 14 1009.4 1008.8 0.0
17/11:00am 17.1 13.9 3.1 39 6.5 WSW 9 19 5 10 1009.4 1008.8 0.0
17/10:30am 15.7 11.1 3.8 45 5.5 W 17 24 9 13 1009.5 1008.9 0.0
17/10:00am 16.3 12.8 5.3 48 5.3 S 13 20 7 11 1009.4 1008.8 0.0
17/09:30am 15.5 11.2 5.1 50 5.0 SW 17 24 9 13 1009.5 1008.9 0.0
17/09:00am 14.4 9.9 6.0 57 4.1 SSW 19 28 10 15 1009.5 1008.9 0.2
17/08:30am 13.9 10.1 6.0 59 3.8 SSW 15 20 8 11 1009.3 1008.7 0.2
17/08:00am 13.0 9.3 6.4 64 3.2 SW 15 19 8 10 1009.2 1008.6 0.2
17/07:30am 11.9 7.2 6.0 67 2.8 SW 20 30 11 16 1008.9 1008.3 0.2
17/07:00am 11.3 7.9 6.0 70 2.5 SW 13 20 7 11 1008.7 1008.1 0.2
17/06:30am 8.8 6.4 5.4 79 1.6 SSW 7 11 4 6 1008.1 1007.4 0.2
17/06:00am 8.2 6.2 4.4 77 1.7 SSW 4 7 2 4 1007.9 1007.2 0.2
17/05:30am 8.6 6.1 4.6 76 1.8 SE 7 11 4 6 1007.6 1006.9 0.2
17/05:00am 9.6 7.7 5.0 73 2.1 SSW 4 9 2 5 1007.1 1006.4 0.2
17/04:30am 10.3 7.5 5.1 70 2.4 SSW 9 15 5 8 1006.8 1006.1 0.2
17/04:00am 10.4 7.5 4.8 68 2.6 SW 9 13 5 7 1006.6 1006.0 0.2
17/03:30am 10.6 6.9 4.7 67 2.7 SW 13 17 7 9 1006.8 1006.1 0.2
17/03:00am 10.9 7.2 4.4 64 3.0 SW 13 20 7 11 1006.8 1006.1 0.2
17/02:30am 11.6 7.9 4.3 61 3.3 SW 13 19 7 10 1006.9 1006.2 0.2
17/02:00am 12.0 8.2 4.0 58 3.6 SW 13 22 7 12 1006.9 1006.2 0.2
17/01:30am 12.5 8.7 4.0 56 3.9 SSW 13 19 7 10 1006.9 1006.2 0.2
17/01:00am 12.9 8.7 3.8 54 4.2 SSW 15 24 8 13 1006.6 1006.0 0.2
17/12:30am 13.4 8.8 3.5 51 4.5 SSW 17 28 9 15 1006.5 1005.9 0.2
17/12:00am 13.9 8.9 3.4 49 4.8 SSW 19 30 10 16 1006.2 1005.6 0.2
 
Date/Time
EDT
Temp
°C
App
Temp
°C
Dew
Point
Rel
Hum
%
Delta-T
°C
Wind Press
QNH
hPa
Press
MSL
hPa
Rain
since 9 am
mm
Dir
 
Spd
km/h
Gust
km/h
Spd
kts
Gust
kts
16/11:30pm 14.3 9.8 4.3 51 4.7 SSW 17 24 9 13 1005.9 1005.3 0.2
16/11:00pm 14.8 9.7 4.2 49 5.0 SSW 20 32 11 17 1005.5 1004.9 0.2
16/10:30pm 15.0 9.9 4.1 48 5.1 SSW 20 33 11 18 1005.1 1004.5 0.2
16/10:00pm 15.6 9.6 3.4 44 5.7 SSW 24 37 13 20 1004.7 1004.1 0.2
16/09:30pm 16.1 10.6 4.2 45 5.6 SW 22 35 12 19 1003.9 1003.2 0.2
16/09:00pm 17.7 11.0 3.9 40 6.6 SW 28 41 15 22 1002.9 1002.2 0.2
16/08:31pm 19.2 11.7 3.4 35 7.5 WSW 32 50 17 27 1002.1 1001.4 0.2
16/08:30pm 19.2 11.5 3.4 35 7.5 WSW 33 50 18 27 1002.1 1001.4 0.2
16/08:06pm 20.1 12.7 5.0 37 7.4 WSW 33 52 18 28 1001.4 1000.8 0.2
16/08:00pm 20.0 13.0 6.0 40 7.1 SW 32 48 17 26 1001.3 1000.7 0.2
16/07:46pm 20.2 11.9 6.2 40 7.1 WSW 39 57 21 31 1000.8 1000.2 0.2
16/07:35pm 21.4 13.4 4.0 32 8.5 W 35 54 19 29 1000.5 999.9 0.2
16/07:30pm 21.2 12.8 3.9 32 8.4 W 37 54 20 29 1000.5 999.9 0.2
16/07:00pm 22.1 13.8 6.3 36 8.1 WSW 39 57 21 31 1000.1 999.5 0.2
16/06:30pm 21.8 12.3 6.9 38 7.7 W 46 65 25 35 999.4 998.7 0.2
16/06:00pm 21.9 13.6 9.4 45 6.8 WSW 43 65 23 35 998.9 998.2 0.2
16/05:30pm 24.3 15.8 8.7 37 8.5 WSW 43 69 23 37 997.9 997.2 0.2
16/05:00pm 26.7 19.4 5.6 26 11.1 W 33 57 18 31 997.0 996.3 0.2
16/04:30pm 27.7 18.4 2.7 20 12.4 W 41 74 22 40 996.8 996.1 0.2
16/04:00pm 29.1 19.6 1.6 17 13.6 W 41 61 22 33 996.3 995.7 0.2
16/03:50pm 29.2 19.3 -1.0 14 14.2 WNW 41 69 22 37 996.3 995.7 0.2
16/03:46pm 28.8 19.2 -1.3 14 14.1 WNW 39 65 21 35 996.2 995.6 0.2
16/03:42pm 29.5 19.9 -1.8 13 14.6 WNW 39 65 21 35 996.1 995.5 0.2
16/03:30pm 29.5 19.7 -2.9 12 14.8 WNW 39 61 21 33 996.1 995.5 0.2
16/03:00pm 30.2 19.0 -3.5 11 15.4 WNW 46 70 25 38 995.8 995.2 0.2
16/02:30pm 30.6 21.0 -4.5 10 15.7 NW 37 59 20 32 995.7 995.1 0.2
16/02:04pm 30.7 22.0 -3.1 11 15.5 NW 33 52 18 28 995.7 995.1 0.2
16/02:00pm 31.3 22.9 -2.6 11 15.9 NW 32 46 17 25 995.8 995.2 0.2
16/01:35pm 30.1 21.6 -3.6 11 15.3 NW 32 52 17 28 996.0 995.4 0.2
16/01:30pm 30.3 22.9 -3.4 11 15.4 NW 26 44 14 24 996.2 995.6 0.2
16/01:16pm 29.9 22.2 -2.6 12 15.0 NNW 28 46 15 25 996.3 995.7 0.2
16/01:00pm 29.4 21.9 -4.1 11 15.1 NNW 26 39 14 21 996.8 996.1 0.2
16/12:30pm 28.8 20.5 -4.6 11 14.7 WNW 30 41 16 22 997.0 996.3 0.2
16/12:00pm 28.0 19.6 -6.4 10 14.7 NW 30 43 16 23 997.4 996.7 0.2
16/11:37am 27.5 18.8 -5.6 11 14.2 WNW 32 50 17 27 998.0 997.3 0.2
16/11:30am 27.9 18.6 -5.2 11 14.3 WNW 35 50 19 27 998.0 997.3 0.2
16/11:00am 28.0 19.4 -4.0 12 14.3 WNW 32 50 17 27 998.3 997.6 0.2
16/10:47am 27.1 18.5 -2.7 14 13.4 W 33 52 18 28 998.3 997.6 0.2
16/10:30am 27.0 18.6 -0.9 16 13.0 W 33 50 18 27 998.2 997.5 0.2
16/10:10am 26.3 18.0 -1.5 16 12.7 WNW 32 50 17 27 998.1 997.4 0.0
16/10:00am 26.0 19.1 2.7 22 11.5 WNW 28 43 15 23 998.0 997.3 0.0
16/09:30am 24.9 19.0 4.1 26 10.4 W 24 33 13 18 997.9 997.2 0.0
16/09:00am 23.6 18.8 8.8 39 8.1 WNW 24 33 13 18 998.1 997.4 0.2
16/08:30am 22.1 18.1 10.3 47 6.5 W 22 33 12 18 997.9 997.2 0.2
16/08:00am 21.0 17.9 11.6 55 5.3 W 19 32 10 17 998.0 997.3 0.2
16/07:30am 20.4 18.1 12.9 62 4.3 WNW 17 22 9 12 997.6 996.9 0.2
16/07:00am 17.4 18.7 14.1 81 1.9 CALM 0 0 0 0 996.9 996.2 0.2
16/06:30am 15.5 16.3 12.6 83 1.6 CALM 0 0 0 0 996.6 996.0 0.2
16/06:00am 14.0 14.5 11.7 86 1.3 CALM 0 0 0 0 996.2 995.6 0.2
16/05:30am 15.7 16.8 13.4 86 1.3 CALM 0 0 0 0 996.2 995.6 0.2
16/05:00am 15.2 15.8 13.1 87 1.2 SSE 2 7 1 4 996.2 995.6 0.2
16/04:30am 16.0 16.2 13.1 83 1.6 SSE 4 9 2 5 996.1 995.5 0.2
16/04:00am 16.7 17.6 14.0 84 1.6 SSE 2 9 1 5 996.2 995.6 0.2
16/03:30am 17.5 17.8 14.4 82 1.8 SE 6 7 3 4 996.8 996.1 0.2
16/03:00am 19.6 19.5 14.0 70 3.3 WSW 7 11 4 6 997.1 996.4 0.2
16/02:30am 19.5 19.5 14.1 71 3.1 SE 7 13 4 7 997.2 996.5 0.2
16/02:00am 19.1 18.3 13.9 72 3.0 SE 11 17 6 9 997.2 996.5 0.2
16/01:30am 18.8 18.1 14.3 75 2.6 SE 11 15 6 8 997.5 996.8 0.2
16/01:00am 19.2 18.8 14.2 73 2.9 S 9 26 5 14 998.0 997.3 0.2
16/12:30am 20.2 18.6 12.9 63 4.2 SE 13 17 7 9 998.1 997.4 0.0
16/12:00am 20.0 18.2 13.2 65 3.9 SE 15 22 8 12 998.6 997.9 0.0
 
Date/Time
EDT
Temp
°C
App
Temp
°C
Dew
Point
Rel
Hum
%
Delta-T
°C
Wind Press
QNH
hPa
Press
MSL
hPa
Rain
since 9 am
mm
Dir
 
Spd
km/h
Gust
km/h
Spd
kts
Gust
kts
15/11:30pm 20.0 17.8 13.2 65 3.9 SSE 17 24 9 13 998.9 998.2 0.0
15/11:00pm 21.1 18.9 13.3 61 4.5 SSE 17 22 9 12 999.5 998.8 0.0
15/10:30pm 23.2 20.6 13.1 53 5.9 SE 19 28 10 15 999.5 998.8 0.0
15/10:00pm 24.6 21.7 12.9 48 6.9 SE 20 30 11 16 999.6 998.9 0.0
15/09:30pm 26.4 22.6 12.5 42 8.1 SE 24 37 13 20 999.5 998.8 0.0
15/09:00pm 27.7 25.8 7.5 28 11.0 SE 7 11 4 6 999.3 998.6 0.0
15/08:30pm 29.5 27.8 7.4 25 12.0 ESE 6 9 3 5 999.4 998.7 0.0
15/08:00pm 31.5 29.7 7.2 22 13.4 ESE 6 9 3 5 999.7 999.0 0.0

Other Formats:

Comma delimited format used in spreadsheet applications
http://www.bom.gov.au/fwo/IDV60801/IDV60801.94855.axf

JavaScript Object Notation format (JSON) in row-major order
http://www.bom.gov.au/fwo/IDV60801/IDV60801.94855.json